createdAt,value
2023-02-25T10:45:23.590Z,4.45
2023-02-25T10:50:44.497Z,2.45
2023-02-25T10:55:59.018Z,2.05
2023-02-25T11:01:02.662Z,0.75
2023-02-25T11:06:12.046Z,1.20
2023-02-25T11:11:27.082Z,2.75
2023-02-25T11:16:21.351Z,2.08
2023-02-25T11:21:16.498Z,1.35
2023-02-25T11:26:16.443Z,1.80
2023-02-25T11:31:25.775Z,3.45
2023-02-25T11:36:27.633Z,2.20
2023-02-25T11:41:27.637Z,7.65
2023-02-25T11:46:34.853Z,1.40
2023-02-25T11:51:41.982Z,0.68
2023-02-25T11:56:51.904Z,5.30
2023-02-25T12:02:01.885Z,0.80
2023-02-25T12:07:29.480Z,1.85
2023-02-25T16:14:44.209Z,2.47
2023-02-25T16:19:40.257Z,5.72
2023-02-25T16:24:32.799Z,2.88
2023-02-25T16:29:40.080Z,3.83
2023-02-25T16:34:36.432Z,4.15
2023-02-25T16:39:31.548Z,6.30
2023-02-25T16:44:29.637Z,4.75
2023-02-25T16:49:36.984Z,2.60
2023-02-25T16:54:34.661Z,3.08
2023-02-25T16:59:34.109Z,3.22
2023-02-25T17:04:39.795Z,5.00
2023-02-25T17:09:33.104Z,5.77
2023-02-25T17:14:46.678Z,3.38
2023-02-25T17:19:45.173Z,3.08
2023-02-25T17:24:36.934Z,4.83
2023-02-25T17:29:41.525Z,3.70
2023-02-25T17:34:35.422Z,5.83
2023-02-25T17:39:34.814Z,4.70
2023-02-25T17:44:49.267Z,4.23
2023-02-25T17:49:40.774Z,5.15
2023-02-25T17:54:37.201Z,6.32
2023-02-25T17:59:48.727Z,3.00
2023-02-25T18:04:54.007Z,4.72
2023-02-25T18:09:50.329Z,4.27
2023-02-25T18:14:48.270Z,4.45
2023-02-25T18:19:41.660Z,4.25
2023-02-25T18:24:38.296Z,4.18
2023-02-25T18:29:35.035Z,4.00
2023-02-25T18:34:37.022Z,4.35
2023-02-25T18:39:31.706Z,4.07
2023-02-25T18:44:26.512Z,3.60
2023-02-25T18:49:25.244Z,4.93
2023-02-25T18:54:38.725Z,5.43
2023-02-25T18:59:30.600Z,5.53
2023-02-25T19:04:33.920Z,5.28
2023-02-25T19:09:30.584Z,6.45
2023-02-25T19:14:23.207Z,4.50
2023-02-25T19:19:17.818Z,3.50
2023-02-25T19:24:14.365Z,4.10
2023-02-25T19:29:08.083Z,4.85
2023-02-25T19:34:04.258Z,4.95
2023-02-25T19:39:02.284Z,3.33
2023-02-25T19:43:57.642Z,5.60
2023-02-25T19:48:54.566Z,5.30
2023-02-25T19:53:47.583Z,7.17
2023-02-25T19:58:44.223Z,6.22
2023-02-25T20:03:40.592Z,9.02
2023-02-25T20:08:53.199Z,7.90
2023-02-25T20:13:48.227Z,7.50
2023-02-25T20:19:07.913Z,6.05
2023-02-25T20:24:03.190Z,6.43
2023-02-25T20:28:56.894Z,7.15
2023-02-25T20:33:59.633Z,7.05
2023-02-25T20:39:13.140Z,7.97
2023-02-25T20:44:14.031Z,9.30
2023-02-25T20:49:08.299Z,9.15
2023-02-25T20:54:12.176Z,7.77
2023-02-25T20:59:08.369Z,7.00
2023-02-25T21:04:16.987Z,8.13
2023-02-25T21:09:19.763Z,5.47
2023-02-25T21:14:12.504Z,8.17
2023-02-25T21:19:04.721Z,9.20
2023-02-25T21:24:00.580Z,7.32
2023-02-25T21:28:54.568Z,6.97
2023-02-25T21:33:46.991Z,8.32
2023-02-25T21:38:41.099Z,6.80
2023-02-25T21:43:37.187Z,9.73
2023-02-25T21:48:34.999Z,5.63
2023-02-25T21:53:30.273Z,7.43
2023-02-25T21:58:27.933Z,5.60
2023-02-25T22:03:20.504Z,7.18
2023-02-25T22:08:11.245Z,6.68
2023-02-25T22:13:04.480Z,5.57
2023-02-25T22:17:59.685Z,6.40
2023-02-25T22:22:59.511Z,5.85
2023-02-25T22:27:53.098Z,6.40
2023-02-25T22:32:50.862Z,6.45
2023-02-25T22:37:42.370Z,4.53
2023-02-25T22:42:40.049Z,6.00
2023-02-25T22:47:33.199Z,5.13
2023-02-25T22:52:23.202Z,5.95
2023-02-25T22:57:13.502Z,7.45
2023-02-25T23:02:10.538Z,7.00
2023-02-25T23:07:13.763Z,4.75
2023-02-25T23:12:06.204Z,4.32
2023-02-25T23:17:09.680Z,5.88
2023-02-25T23:22:04.605Z,6.43
2023-02-25T23:27:01.818Z,4.55
2023-02-25T23:31:52.761Z,6.18
2023-02-25T23:36:47.046Z,4.50
2023-02-25T23:41:41.813Z,5.45
2023-02-25T23:46:37.922Z,5.27
2023-02-25T23:51:39.251Z,5.85
2023-02-25T23:56:37.498Z,5.05
